createdAt,value
2022-08-07T00:02:39.724Z,53.74
2022-08-07T00:05:05.985Z,53.55
2022-08-07T00:07:39.223Z,54.62
2022-08-07T00:10:26.435Z,54.26
2022-08-07T00:13:00.001Z,54.04
2022-08-07T00:15:38.235Z,54.51
2022-08-07T00:18:19.196Z,54.44
2022-08-07T00:20:51.295Z,53.89
2022-08-07T00:23:21.331Z,54.58
2022-08-07T00:25:52.109Z,54.34
2022-08-07T00:28:33.450Z,55.05
2022-08-07T00:31:12.409Z,56.00
2022-08-07T00:33:41.997Z,55.01
2022-08-07T00:36:11.867Z,55.66
2022-08-07T00:38:40.390Z,55.37
2022-08-07T00:41:14.499Z,55.45
2022-08-07T00:44:00.471Z,55.20
2022-08-07T00:46:33.234Z,55.38
2022-08-07T00:49:03.242Z,55.55
2022-08-07T00:51:57.178Z,55.57
2022-08-07T00:54:22.304Z,55.33
2022-08-07T00:56:51.634Z,55.83
2022-08-07T00:59:32.399Z,55.97
2022-08-07T01:02:08.773Z,56.42
2022-08-07T01:04:43.148Z,56.33
2022-08-07T01:07:14.149Z,57.05
2022-08-07T01:10:05.754Z,56.88
2022-08-07T01:12:31.989Z,56.96
2022-08-07T01:15:04.013Z,56.35
2022-08-07T01:17:34.329Z,56.62
2022-08-07T01:20:17.180Z,56.96
2022-08-07T01:23:00.552Z,56.67
2022-08-07T01:25:56.147Z,56.50
2022-08-07T01:28:26.176Z,56.88
2022-08-07T01:30:58.215Z,56.51
2022-08-07T01:33:30.139Z,56.61
2022-08-07T01:36:17.070Z,57.61
2022-08-07T01:38:48.745Z,57.40
2022-08-07T01:41:26.066Z,57.91
2022-08-07T01:43:56.737Z,57.88
2022-08-07T01:46:26.174Z,57.89
2022-08-07T01:48:55.870Z,57.56
2022-08-07T01:52:02.232Z,57.65
2022-08-07T01:54:32.859Z,58.17
2022-08-07T01:57:24.158Z,58.08
2022-08-07T01:59:58.851Z,57.81
2022-08-07T02:03:19.108Z,57.68
2022-08-07T02:05:42.994Z,57.43
2022-08-07T02:08:23.687Z,57.46
2022-08-07T02:10:58.590Z,57.71
2022-08-07T02:13:57.631Z,57.74
2022-08-07T02:16:28.580Z,57.65
2022-08-07T02:19:05.669Z,58.07
2022-08-07T02:21:57.775Z,57.60
2022-08-07T02:24:29.423Z,57.73
2022-08-07T02:27:02.746Z,57.81
2022-08-07T02:29:34.311Z,58.02
2022-08-07T02:32:06.946Z,58.33
2022-08-07T02:34:50.969Z,59.13
2022-08-07T02:37:23.206Z,59.27
2022-08-07T02:40:02.150Z,59.14
2022-08-07T02:42:48.121Z,59.33
2022-08-07T02:46:00.411Z,59.95
2022-08-07T02:48:10.289Z,60.11
2022-08-07T02:50:49.716Z,60.93
2022-08-07T02:53:27.567Z,60.53
2022-08-07T02:56:02.235Z,60.61
2022-08-07T02:58:36.809Z,61.26
2022-08-07T03:01:16.075Z,61.54
2022-08-07T03:03:54.912Z,61.94
2022-08-07T03:06:32.938Z,61.21
2022-08-07T03:09:04.793Z,62.07
2022-08-07T03:11:38.719Z,61.30
2022-08-07T03:14:11.064Z,62.09
2022-08-07T03:16:41.002Z,62.29
2022-08-07T03:19:11.432Z,61.55
2022-08-07T03:21:50.553Z,61.69
2022-08-07T03:24:26.897Z,61.76
2022-08-07T03:27:04.751Z,62.54
2022-08-07T03:29:50.777Z,62.16
2022-08-07T03:32:26.610Z,62.57
2022-08-07T03:35:17.630Z,62.17
2022-08-07T03:37:55.259Z,62.38
2022-08-07T03:40:30.785Z,62.12
2022-08-07T03:43:13.844Z,62.27
2022-08-07T03:45:49.021Z,62.17
2022-08-07T03:48:23.262Z,62.18
2022-08-07T03:50:57.959Z,62.52
2022-08-07T03:54:01.945Z,62.69
2022-08-07T03:56:33.091Z,62.60
2022-08-07T03:59:09.551Z,62.91
2022-08-07T04:01:46.979Z,63.85
2022-08-07T04:04:21.312Z,63.17
2022-08-07T04:06:54.259Z,63.86
2022-08-07T04:09:29.511Z,63.63
2022-08-07T04:12:24.400Z,63.28
2022-08-07T04:15:00.231Z,63.43
2022-08-07T04:18:31.360Z,63.20
2022-08-07T04:20:22.574Z,63.30
2022-08-07T04:23:01.437Z,63.53
2022-08-07T04:25:39.106Z,63.30
2022-08-07T04:28:13.265Z,63.56
2022-08-07T04:30:55.154Z,63.42
2022-08-07T04:33:30.373Z,63.07
2022-08-07T04:36:00.111Z,63.44
2022-08-07T04:38:35.002Z,63.28
2022-08-07T04:41:04.499Z,63.14
2022-08-07T04:44:14.518Z,63.49
2022-08-07T04:46:59.571Z,63.16
2022-08-07T04:49:42.352Z,63.40
2022-08-07T04:52:38.282Z,63.67
2022-08-07T04:58:09.596Z,63.53
2022-08-07T04:58:49.708Z,62.83
2022-08-07T05:01:30.193Z,63.05
2022-08-07T05:04:17.118Z,62.98
2022-08-07T05:06:59.361Z,63.08
2022-08-07T05:09:45.307Z,62.83
2022-08-07T05:12:27.430Z,62.95
2022-08-07T05:15:23.298Z,62.60
2022-08-07T05:18:08.859Z,62.67
2022-08-07T05:20:43.455Z,62.66
2022-08-07T05:23:19.188Z,61.92
2022-08-07T05:26:11.579Z,62.18
2022-08-07T05:28:46.482Z,62.01
2022-08-07T05:31:19.064Z,62.39
2022-08-07T05:34:01.266Z,61.50
2022-08-07T05:36:35.939Z,62.42
2022-08-07T05:40:14.224Z,62.77
2022-08-07T05:42:08.749Z,62.27
2022-08-07T05:44:52.938Z,62.87
2022-08-07T05:47:38.146Z,61.88
2022-08-07T05:50:20.054Z,61.79
2022-08-07T05:52:49.086Z,61.91
2022-08-07T05:55:20.345Z,61.20
2022-08-07T05:57:50.515Z,60.72
2022-08-07T06:00:20.048Z,61.48
2022-08-07T06:03:00.835Z,61.05
2022-08-07T06:05:31.359Z,60.90
2022-08-07T06:08:29.847Z,60.58
2022-08-07T06:10:56.417Z,60.21
2022-08-07T06:14:10.820Z,58.97
2022-08-07T06:16:16.573Z,59.46
2022-08-07T06:18:51.455Z,58.24
2022-08-07T06:22:16.438Z,58.50
2022-08-07T06:24:50.730Z,58.54
2022-08-07T06:27:03.799Z,58.19
2022-08-07T06:29:34.947Z,57.72
2022-08-07T06:32:08.481Z,57.31
2022-08-07T06:34:37.510Z,57.06
2022-08-07T06:37:11.201Z,56.71
2022-08-07T06:40:17.674Z,56.40
2022-08-07T06:42:38.397Z,56.65
2022-08-07T06:45:18.250Z,55.31
2022-08-07T06:47:58.555Z,54.82
2022-08-07T06:50:36.096Z,54.92
2022-08-07T06:54:11.492Z,55.97
2022-08-07T06:56:00.975Z,55.60
2022-08-07T06:58:35.732Z,54.77
2022-08-07T07:01:12.177Z,54.42
2022-08-07T07:03:50.018Z,53.78
2022-08-07T07:06:27.333Z,53.38
2022-08-07T07:08:56.775Z,53.02
2022-08-07T07:12:08.414Z,52.60
2022-08-07T07:14:17.931Z,52.64
2022-08-07T07:16:50.628Z,51.97
2022-08-07T07:19:57.688Z,52.40
2022-08-07T07:22:36.607Z,51.44
2022-08-07T07:25:13.898Z,51.59
2022-08-07T07:28:02.981Z,51.30
2022-08-07T07:30:42.927Z,50.04
2022-08-07T07:33:15.217Z,51.01
2022-08-07T07:36:04.042Z,51.23
2022-08-07T07:38:36.059Z,49.93
2022-08-07T07:41:08.867Z,49.10
2022-08-07T07:44:14.787Z,48.42
2022-08-07T07:46:55.361Z,48.42
2022-08-07T07:50:34.694Z,49.08
2022-08-07T07:52:18.189Z,49.60
2022-08-07T07:54:51.188Z,47.96
2022-08-07T07:57:43.894Z,47.70
2022-08-07T08:00:28.814Z,47.75
2022-08-07T08:03:07.347Z,47.20
2022-08-07T08:05:55.351Z,47.47
2022-08-07T08:08:35.185Z,46.16
2022-08-07T08:11:13.511Z,46.01
2022-08-07T08:13:54.458Z,46.77
2022-08-07T08:16:31.041Z,46.72
2022-08-07T08:19:09.746Z,46.25
2022-08-07T08:22:07.995Z,45.56
2022-08-07T08:25:09.332Z,45.52
2022-08-07T08:27:57.484Z,45.13
2022-08-07T08:30:32.169Z,44.99
2022-08-07T08:33:05.377Z,44.97
2022-08-07T08:35:47.226Z,45.88
2022-08-07T08:38:29.590Z,44.91
2022-08-07T08:41:09.301Z,44.14
2022-08-07T08:43:56.108Z,43.88
2022-08-07T08:46:38.362Z,43.92
2022-08-07T08:49:33.534Z,43.65
2022-08-07T08:52:19.023Z,43.36
2022-08-07T08:54:56.499Z,44.11
2022-08-07T08:57:34.296Z,42.83
2022-08-07T09:00:07.659Z,42.26
2022-08-07T09:02:49.514Z,43.58
2022-08-07T09:05:38.459Z,43.28
2022-08-07T09:08:29.010Z,43.46
2022-08-07T09:11:10.889Z,42.96
2022-08-07T09:13:56.108Z,42.86
2022-08-07T09:16:38.179Z,42.92
2022-08-07T09:19:53.079Z,43.51
2022-08-07T09:24:28.681Z,42.63
2022-08-07T09:25:38.218Z,44.15
2022-08-07T09:30:04.645Z,41.94
2022-08-07T09:31:04.173Z,41.30
2022-08-07T09:33:58.286Z,41.66
2022-08-07T09:36:37.369Z,41.73
2022-08-07T09:39:52.662Z,39.98
2022-08-07T09:42:45.590Z,40.39
2022-08-07T09:47:52.478Z,40.58
2022-08-07T09:49:02.304Z,40.81
2022-08-07T09:52:16.489Z,40.01
2022-08-07T09:54:40.233Z,40.40
2022-08-07T09:57:49.048Z,39.90
2022-08-07T10:00:24.385Z,40.90
2022-08-07T10:04:03.137Z,40.37
2022-08-07T10:07:25.969Z,41.05
2022-08-07T10:10:21.482Z,40.11
2022-08-07T10:14:01.451Z,39.77
2022-08-07T10:16:45.229Z,41.04
2022-08-07T10:19:27.020Z,39.47
2022-08-07T10:22:17.220Z,39.93
2022-08-07T10:25:13.556Z,39.06
2022-08-07T10:28:03.759Z,39.19
2022-08-07T10:30:48.943Z,39.12
2022-08-07T10:34:07.000Z,39.08
2022-08-07T10:36:52.023Z,39.92
2022-08-07T10:39:57.397Z,40.05
2022-08-07T10:42:38.480Z,40.46
2022-08-07T10:45:44.389Z,38.55
2022-08-07T10:48:36.016Z,39.29
2022-08-07T10:51:16.580Z,39.71
2022-08-07T10:54:11.801Z,39.79
2022-08-07T10:57:04.688Z,40.07
2022-08-07T10:59:49.442Z,38.90
2022-08-07T11:02:34.070Z,39.98
2022-08-07T11:05:35.914Z,39.94
2022-08-07T11:08:31.019Z,39.52
2022-08-07T11:11:09.610Z,40.12
2022-08-07T11:14:43.410Z,39.48
2022-08-07T11:16:55.750Z,38.96
2022-08-07T11:19:39.552Z,39.23
2022-08-07T11:22:26.394Z,38.60
2022-08-07T11:25:08.750Z,39.14
2022-08-07T11:28:02.822Z,38.25
2022-08-07T11:30:43.819Z,37.62
2022-08-07T11:33:54.047Z,37.91
2022-08-07T11:36:31.637Z,37.73
2022-08-07T11:39:19.479Z,37.60
2022-08-07T11:42:00.390Z,37.84
2022-08-07T11:44:52.562Z,37.04
2022-08-07T11:47:59.103Z,36.68
2022-08-07T11:50:58.017Z,37.53
2022-08-07T11:53:43.237Z,37.33
2022-08-07T11:56:46.742Z,35.80
2022-08-07T12:00:11.298Z,35.71
2022-08-07T12:03:45.199Z,35.81
2022-08-07T12:06:37.758Z,36.23
2022-08-07T12:09:16.709Z,36.00
2022-08-07T12:12:08.841Z,35.49
2022-08-07T12:14:55.442Z,34.85
2022-08-07T12:17:40.590Z,35.52
2022-08-07T12:20:35.257Z,34.39
2022-08-07T12:24:05.757Z,34.34
2022-08-07T12:26:35.396Z,34.36
2022-08-07T12:29:38.794Z,35.08
2022-08-07T12:32:19.022Z,34.41
2022-08-07T12:34:53.436Z,34.71
2022-08-07T12:37:28.562Z,34.93
2022-08-07T12:40:46.423Z,35.00
2022-08-07T12:43:12.413Z,34.74
2022-08-07T12:46:26.460Z,34.32
2022-08-07T12:49:39.719Z,34.41
2022-08-07T12:52:14.134Z,34.27
2022-08-07T12:55:00.140Z,34.52
2022-08-07T12:57:39.088Z,34.92
2022-08-07T13:00:41.744Z,33.82
2022-08-07T13:03:59.151Z,34.97
2022-08-07T13:07:02.471Z,34.39
2022-08-07T13:10:28.526Z,34.42
2022-08-07T13:13:06.594Z,35.38
2022-08-07T13:15:47.534Z,35.28
2022-08-07T13:18:32.041Z,35.51
2022-08-07T13:21:23.586Z,34.90
2022-08-07T13:24:19.525Z,34.71
2022-08-07T13:27:05.533Z,34.49
2022-08-07T13:29:46.997Z,35.03
2022-08-07T13:32:31.224Z,35.04
2022-08-07T13:35:09.366Z,34.50
2022-08-07T13:37:59.114Z,34.37
2022-08-07T13:40:42.333Z,35.17
2022-08-07T13:43:16.310Z,34.50
2022-08-07T13:46:11.859Z,34.45
2022-08-07T13:48:40.758Z,34.40
2022-08-07T13:51:28.153Z,34.81
2022-08-07T13:54:04.488Z,33.72
2022-08-07T13:56:41.270Z,34.42
2022-08-07T13:59:23.058Z,34.78
2022-08-07T14:02:04.465Z,35.01
2022-08-07T14:04:48.905Z,34.66
2022-08-07T14:07:22.975Z,34.87
2022-08-07T14:10:12.351Z,35.00
2022-08-07T14:12:54.916Z,35.64
2022-08-07T14:15:34.961Z,34.70
2022-08-07T14:18:23.970Z,33.76
2022-08-07T14:21:08.527Z,33.19
2022-08-07T14:24:00.751Z,33.48
2022-08-07T14:26:39.107Z,33.83
2022-08-07T14:30:07.337Z,33.40
2022-08-07T14:32:07.904Z,32.71
2022-08-07T14:34:45.888Z,32.61
2022-08-07T14:37:17.905Z,33.11
2022-08-07T14:40:17.344Z,32.22
2022-08-07T14:43:01.139Z,32.21
2022-08-07T14:51:15.917Z,32.91
2022-08-07T14:56:42.324Z,33.23
2022-08-07T15:00:03.551Z,32.83
2022-08-07T15:05:02.185Z,33.04
2022-08-07T15:10:26.533Z,32.59
2022-08-07T15:13:01.086Z,32.44
2022-08-07T15:15:40.578Z,32.95
2022-08-07T15:18:33.956Z,34.18
2022-08-07T15:25:13.284Z,33.45
2022-08-07T15:26:57.151Z,34.63
2022-08-07T15:30:10.911Z,34.91
2022-08-07T15:32:39.395Z,34.88
2022-08-07T15:35:16.965Z,34.77
2022-08-07T15:38:17.261Z,34.02
2022-08-07T15:41:00.386Z,34.47
2022-08-07T15:43:33.211Z,33.80
2022-08-07T15:49:15.491Z,34.77
2022-08-07T15:54:34.152Z,34.47
2022-08-07T15:57:06.116Z,34.77
2022-08-07T15:59:39.585Z,33.73
2022-08-07T16:02:24.748Z,35.02
2022-08-07T16:04:59.400Z,35.14
2022-08-07T16:08:32.551Z,34.66
2022-08-07T16:10:28.446Z,35.46
2022-08-07T16:13:58.565Z,34.56
2022-08-07T16:16:56.714Z,34.49
2022-08-07T16:19:59.473Z,35.12
2022-08-07T16:23:05.239Z,35.01
2022-08-07T16:25:55.229Z,35.74
2022-08-07T16:30:07.247Z,36.41
2022-08-07T16:32:00.786Z,35.63
2022-08-07T16:34:49.416Z,35.78
2022-08-07T16:38:04.442Z,36.34
2022-08-07T16:41:17.991Z,35.35
2022-08-07T16:44:46.967Z,35.32
2022-08-07T16:47:53.095Z,35.93
2022-08-07T16:50:37.113Z,35.98
2022-08-07T16:54:02.714Z,35.20
2022-08-07T16:56:37.518Z,35.29
2022-08-07T16:59:17.979Z,36.04
2022-08-07T17:02:03.417Z,36.28
2022-08-07T17:04:50.953Z,35.65
2022-08-07T17:07:55.695Z,35.59
2022-08-07T17:10:41.951Z,35.57
2022-08-07T17:14:18.513Z,35.90
2022-08-07T17:16:46.066Z,35.47
2022-08-07T17:20:02.015Z,35.83
2022-08-07T17:22:42.630Z,35.40
2022-08-07T17:25:20.108Z,35.73
2022-08-07T17:28:19.573Z,36.29
2022-08-07T17:31:00.567Z,36.01
2022-08-07T17:34:17.871Z,36.50
2022-08-07T17:36:57.588Z,35.89
2022-08-07T17:39:58.892Z,36.35
2022-08-07T17:42:59.767Z,36.16
2022-08-07T17:45:35.925Z,35.41
2022-08-07T17:48:12.920Z,35.44
2022-08-07T17:51:01.770Z,36.35
2022-08-07T17:54:01.400Z,36.08
2022-08-07T17:56:36.452Z,35.80
2022-08-07T17:59:25.299Z,36.26
2022-08-07T18:02:02.849Z,35.93
2022-08-07T18:04:46.249Z,36.38
2022-08-07T18:07:28.589Z,36.41
2022-08-07T18:10:11.811Z,36.37
2022-08-07T18:13:16.648Z,36.63
2022-08-07T18:16:06.401Z,36.79
2022-08-07T18:21:04.066Z,37.09
2022-08-07T18:21:58.310Z,36.49
2022-08-07T18:24:35.281Z,36.70
2022-08-07T18:27:38.961Z,37.21
2022-08-07T18:30:33.067Z,37.58
2022-08-07T18:33:37.917Z,38.15
2022-08-07T18:36:26.805Z,38.72
2022-08-07T18:40:07.125Z,38.84
2022-08-07T18:42:18.743Z,39.23
2022-08-07T18:45:43.690Z,39.78
2022-08-07T18:48:01.912Z,39.45
2022-08-07T18:50:58.242Z,39.82
2022-08-07T18:53:45.865Z,39.79
2022-08-07T18:56:31.783Z,40.40
2022-08-07T18:59:48.057Z,41.02
2022-08-07T19:02:34.584Z,41.50
2022-08-07T19:05:15.816Z,41.03
2022-08-07T19:07:59.311Z,41.07
2022-08-07T19:10:51.651Z,41.69
2022-08-07T19:13:27.473Z,41.39
2022-08-07T19:17:06.465Z,42.35
2022-08-07T19:19:04.759Z,43.14
2022-08-07T19:21:51.275Z,43.93
2022-08-07T19:24:38.187Z,44.31
2022-08-07T19:28:58.312Z,43.92
2022-08-07T19:31:01.319Z,44.49
2022-08-07T19:33:12.794Z,45.19
2022-08-07T19:35:43.434Z,45.16
2022-08-07T19:38:17.450Z,44.75
2022-08-07T19:40:49.959Z,45.20
2022-08-07T19:43:44.257Z,45.44
2022-08-07T19:46:14.532Z,45.83
2022-08-07T19:48:53.897Z,46.74
2022-08-07T19:51:52.212Z,46.30
2022-08-07T19:54:33.608Z,46.09
2022-08-07T19:58:01.509Z,46.06
2022-08-07T20:00:00.177Z,46.72
2022-08-07T20:02:38.976Z,46.85
2022-08-07T20:05:11.637Z,46.76
2022-08-07T20:07:50.922Z,46.93
2022-08-07T20:10:38.100Z,47.34
2022-08-07T20:13:22.861Z,47.39
2022-08-07T20:15:57.797Z,47.41
2022-08-07T20:18:33.024Z,48.02
2022-08-07T20:21:14.750Z,47.64
2022-08-07T20:23:54.989Z,49.86
2022-08-07T20:26:44.825Z,49.49
2022-08-07T20:29:48.146Z,49.20
2022-08-07T20:32:11.437Z,48.75
2022-08-07T20:34:55.833Z,48.97
2022-08-07T20:37:34.247Z,49.40
2022-08-07T20:40:33.230Z,49.61
2022-08-07T20:43:14.430Z,49.38
2022-08-07T20:46:25.637Z,49.94
2022-08-07T20:48:58.027Z,49.68
2022-08-07T20:51:35.907Z,49.80
2022-08-07T20:54:12.227Z,50.37
2022-08-07T20:56:49.849Z,51.20
2022-08-07T21:00:04.606Z,51.25
2022-08-07T21:02:32.976Z,51.91
2022-08-07T21:05:04.438Z,52.71
2022-08-07T21:07:40.442Z,52.74
2022-08-07T21:10:12.725Z,53.89
2022-08-07T21:12:43.804Z,53.84
2022-08-07T21:15:19.081Z,54.53
2022-08-07T21:18:17.208Z,54.10
2022-08-07T21:20:47.946Z,53.40
2022-08-07T21:23:32.179Z,53.66
2022-08-07T21:26:13.810Z,53.95
2022-08-07T21:28:51.181Z,54.58
2022-08-07T21:32:41.756Z,54.57
2022-08-07T21:34:35.193Z,55.39
2022-08-07T21:37:22.551Z,55.71
2022-08-07T21:39:58.954Z,54.92
2022-08-07T21:42:46.477Z,56.79
2022-08-07T21:46:07.806Z,55.48
2022-08-07T21:48:41.461Z,55.69
2022-08-07T21:51:25.080Z,56.74
2022-08-07T21:54:02.604Z,56.73
2022-08-07T21:56:49.146Z,57.46
2022-08-07T22:00:02.889Z,56.94
2022-08-07T22:02:32.552Z,57.06
2022-08-07T22:05:05.620Z,57.95
2022-08-07T22:07:58.189Z,58.04
2022-08-07T22:10:32.818Z,57.73
2022-08-07T22:13:05.987Z,58.74
2022-08-07T22:16:38.517Z,58.50
2022-08-07T22:18:40.928Z,57.03
2022-08-07T22:21:20.327Z,57.55
2022-08-07T22:23:54.445Z,58.38
2022-08-07T22:26:29.932Z,57.63
2022-08-07T22:29:08.807Z,58.15
2022-08-07T22:32:03.471Z,58.07
2022-08-07T22:34:53.152Z,57.42
2022-08-07T22:38:03.581Z,57.78
2022-08-07T22:40:33.466Z,58.82
2022-08-07T22:43:11.259Z,59.36
2022-08-07T22:46:40.901Z,58.04
2022-08-07T22:49:08.016Z,59.89
2022-08-07T22:52:14.036Z,58.61
2022-08-07T22:55:34.520Z,58.26
2022-08-07T22:58:38.632Z,58.06
2022-08-07T23:01:36.802Z,58.71
2022-08-07T23:04:57.791Z,59.67
2022-08-07T23:07:50.863Z,59.75
2022-08-07T23:10:41.899Z,59.96
2022-08-07T23:13:48.713Z,60.43
2022-08-07T23:16:55.577Z,60.49
2022-08-07T23:19:58.528Z,60.70
2022-08-07T23:22:47.924Z,61.76
2022-08-07T23:25:34.170Z,61.84
2022-08-07T23:28:44.353Z,63.42
2022-08-07T23:32:48.851Z,63.47
2022-08-07T23:34:56.568Z,63.75
2022-08-07T23:38:03.963Z,63.41
2022-08-07T23:40:39.488Z,64.60
2022-08-07T23:43:43.919Z,65.11
2022-08-07T23:46:43.167Z,64.62
2022-08-07T23:50:04.418Z,64.25
2022-08-07T23:53:05.740Z,63.68
2022-08-07T23:55:52.100Z,63.68
2022-08-07T23:58:30.723Z,64.24
